Portada
METAR-TAF:

METAR-TAF

Aeropuertos :

Aeropuerto de Rostock-Laage

Rostock, Alemania

latitud: 53-55N, longitud: 012-17E, altitud: 40 m

Observación

El informe se hizo hace 24 minutos, a las 12:20 UTC
Viento 7 kt del este
Temperatura 18°C
Humedad 42%
Presión 1024 hPa
Visibilidad 10 km o más
Escasas nubes a una altura de 23000 ft
Cielo nuboso a una altura de 24000 ft

METAR: ETNL 191220Z 09007KT 9999 FEW230 BKN240 18/05 Q1024 BLU+

Hora: 14:44 (12:44 UTC)

Pronóstico

El informe se hizo hace 2 horas y 44 minutos, a las 10:00 UTC
Pronóstico válido del 19 a las 11 UTC al 19 a las 23 UTC
Viento 8 kt del este
Visibilidad 10 km o más
Cielo nuboso a una altura de 30000 ft

TAF: ETNL 191000Z 1911/1923 10008KT 9999 NSW BKN300 BY ETGL

Observaciones y pronósticos meteorológicos de más de 4000 aeropuertos (mensajes METAR y TAF).

Los puntos amarillos y rojos representan las estaciones disponibles.

Ponga el ratón en el punto deseado para ver el nombre de la estación.

Haga clic para ver las observaciones y los pronósticos meteorológicos.

Para cambiar el mapa : haga clic en los botones verdes con una cruz de color negro para hacer un zoom, en el botón verde con un guión para alejar o en las flechas verdes para mapas adyacentes.


METAR-TAF: